Ansonia, OH (45303)

5:27 AM EDT en Octubre 26, 2014 (GMT -0400)
Darke County | Change Station
CLOSE
Current Station
Aeropuerto
Location: Versailles,
Altura: 1007 ft
Estaciones meteorológicas cercanas

Alt 1007 ft 40.20 °N, 84.53 °W | Updated 12 minutes ago

Despejado
Despejado
43 ° F
Sensación térmica 39 ° F
N
6
Viento Variable Viento desde ONO

Hoy
Alta -- | Baja -- ° F
--% Posibilidad de precipitaciones
Ayer
Alta -- | Baja -- ° F
Precip. -- pul
8:01 AM 6:43 PM
Creciente, 7% visible
Presión 29.95 pul
Visibilidad 10.0 Millas
Nubes Despejado
Vientos helados 39 ° F
Punto de rocío 34 ° F
Humedad 70%
Precipitaciones 0.00 pul
Espesor de la nieve No disponible.
UV 0 de una escala de 12
Polen 1.70 de una escala de 12
Ozono Buena
PM2.5 Buena
Flu Activity Sporadic
METAR KVES 260915Z AUTO 29005KT 10SM CLR 06/01 A2995 RMK AO2

More Conditions Fewer Conditions

Presión 29.95 pul
Visibilidad 10.0 Millas
Nubes Despejado
Vientos helados 39 ° F
Punto de rocío 34 ° F
Humedad 70%
Precipitaciones 0.00 pul
Espesor de la nieve No disponible.
UV 0 de una escala de 12
Polen 1.70 de una escala de 12
Ozono Buena
PM2.5 Buena
Flu Activity Sporadic
METAR KVES 260915Z AUTO 29005KT 10SM CLR 06/01 A2995 RMK AO2

More Conditions Fewer Conditions

10-Day Weather Forecast

Almanac

Astronomía

Oct. 26, 2014 Salida Puesta
Hora real 8:01 AM EDT 6:43 PM EDT
Crepúsculo civil 7:33 AM EDT 7:11 PM EDT
Crepúsculo náutico 7:01 AM EDT 7:42 PM EDT
Crepúsculo astronómico 6:29 AM EDT 8:14 PM EDT
Luna 10:38 AM EDT 8:53 PM EDT
Horas de luz 11h 37m
Horas de luz
10h 42m
Tomorrow will be 2m 25s shorter.
Creciente, 7% of the Moon is Illuminated
Hoy
Creciente
Oct 30
Cuarto creciente
Nov 6
Luna llena
Nov 14
Cuarto menguante
Nov 22
Nueva

Extremos de hoy

Máximos del estado Bajos del estado

Community

WunderPhotos

Upload Photos

1,765,130 ¡fotos cargadas!

Nearby

Calidad del aire

  Calidad del aire Índice AQ Contaminante
Ayer Moderada
PM2.5
Ayer Buena
OZONE
Real Buena
PM2.5
Real Buena
OZONE
Domingo Moderada
PM2.5
Domingo Buena
OZONE
Lunes Moderada
PM2.5
Lunes Buena
OZONE
Martes Buena
PM2.5
Martes Buena
OZONE

Grosos de nieve

Estación Profundido Altura
No tenemos constancia de nieve nueva.

Actividad de terremotos

Ciudad Distance Mag. Tiempo y dato
No hay informes recientes de la actividad sísmica.
Magnitud mínima muestra es 2,5.

Temperaturas de aguas costeras

Lugar Temperatura
Sin partes meteorológicos de las estaciones

Estaciones meteorológicas cercanas